KMDH Weather | Aviation | SIU

Home
Southern Illinois University

CONTACT

SIU.EDU

Aviation - Weather

College of Applied Sciences and Arts

KMDH Weather

NOTICE: Although all weather products are taken from the National Weather Service, this data should be used only as a supplement to a formal weather briefing.

Last Updated: Thursday, July 27th, 2017, 9:08 am
Information on this page is updated every 5 minutes.


METARS

KMDH 271352Z 00000KT 7SM CLR 27/25 A2997 RMK AO2 SLP143 T02670250

KMDH 271252Z 00000KT 8SM FEW070 26/26 A2996 RMK AO2 SLP141 T02610256

KMDH 271152Z 00000KT 6SM BR SCT065 26/26 A2996 RMK AO2 RAE13 SLP141 P0000 60000

KMWA 271345Z 29004KT 7SM -DZ OVC150 27/27 A2998

KMWA 271245Z 32004KT 7SM SCT050 SCT065 OVC150 27/27 A2998

KMWA 271145Z 25004KT 7SM -RA SCT050 SCT080 OVC150 26/26 A2997

KMWA 271115Z AUTO 00000KT 10SM -RA SCT045 BKN065 BKN075 27/27 A2997 RMK AO2

KCGI 271353Z AUTO 27006KT 9SM SCT060 SCT080 27/24 A2997 RMK AO2 SLP146 T02670239

KCGI 271253Z AUTO 24005KT 9SM SCT055 OVC070 27/23 A2997 RMK AO2 SLP143 T02670233

KCGI 271153Z AUTO 22003KT 7SM SCT070 26/23 A2996 RMK AO2 SLP141 T02560233 10261

KSAR 271355Z AUTO 00000KT 10SM -DZ SCT005 SCT018 BKN050 24/24 A2999 RMK AO2

KSAR 271335Z AUTO 00000KT 10SM RA SCT028 BKN050 OVC080 24/24 A2999 RMK AO2 P0001

KSAR 271315Z AUTO 00000KT 10SM DZ SCT047 BKN050 BKN070 24/23 A2999 RMK AO2

KSAR 271255Z AUTO 12003KT 10SM -RA SCT003 SCT050 24/23 A2999 RMK AO2 T02350233

KSAR 271235Z AUTO 10004KT 10SM -DZ BKN003 BKN009 24/23 A2998 RMK AO2 T02350232

KSAR 271215Z AUTO 08005KT 10SM SCT003 SCT009 BKN028 23/23 A2998 RMK AO2

KSAR 271155Z AUTO 08007KT 7SM -DZ BKN003 BKN028 OVC120 24/24 A2998 RMK AO2 P0001

KSAR 271135Z AUTO 04007KT 7SM -RA BKN005 BKN048 OVC050 24/24 A2998 RMK AO2 P0001

KSAR 271115Z AUTO 04005KT 7SM -RA SCT005 BKN055 OVC065 24/24 A2998 RMK AO2

KFAM 271356Z AUTO 27003KT 10SM -RA FEW012 BKN070 26/23 A3001 RMK AO2 RAB49

KFAM 271325Z AUTO 33005KT 10SM BKN012 BKN025 OVC030 26/23 A3002 RMK AO2 TSNO

KFAM 271316Z AUTO 33005KT 10SM SCT012 BKN024 BKN030 26/23 A3002 RMK AO2 TSNO

KFAM 271256Z AUTO VRB04KT 10SM FEW012 26/23 A3001 RMK AO2 RAB21E43 SLP152 P0000

KFAM 271156Z AUTO 02005KT 10SM CLR 26/23 A3000 RMK AO2 SLP145 T02560228 10272

KMVN 271356Z AUTO 00000KT 10SM -RA BKN003 BKN034 23/23 A2998 RMK AO2 SLP146

KMVN 271319Z AUTO 00000KT 10SM -RA FEW003 BKN036 BKN048 23/23 A2998 RMK AO2 PNO

KMVN 271256Z AUTO 00000KT 5SM -RA BR SCT036 BKN046 23/23 A2997 RMK AO2 SLP145

KMVN 271156Z AUTO 00000KT 9SM -RA FEW021 SCT035 SCT042 23/23 A2997 RMK AO2

KMVN 271154Z AUTO 00000KT 9SM -RA SCT021 BKN035 BKN042 23/23 A2997 RMK AO2 PNO $

KHSB 271355Z AUTO 21004KT 7SM CLR 26/25 A2997 RMK AO2 T02630247

KCIR 271355Z AUTO 24006KT 10SM SCT060 SCT080 SCT090 27/25 A2998 RMK AO2

KPAH 271353Z 25008KT 8SM FEW055 FEW075 27/23 A2998 RMK AO2 SLP145 T02720233

KPOF 271353Z AUTO 23007KT 8SM CLR 27/24 A2998 RMK AO2 SLP146 T02720244

KFAM 271356Z AUTO 27003KT 10SM -RA FEW012 BKN070 26/23 A3001 RMK AO2 RAB49

KBLV 271329Z COR AUTO 22003KT 10SM -RA SCT003 BKN005 OVC015 24/23 A2998 RMK AO2

KSUS 271354Z 19003KT 10SM -RA FEW005 SCT015 OVC110 25/25 A2996 RMK AO2

KCPS 271353Z 00000KT 6SM -RA BR SCT021 OVC100 26/24 A2997 RMK AO2 RAE15B38

KSTL 271351Z 26004KT 7SM -RA FEW012 SCT027 BKN110 OVC250 26/23 A2998 RMK AO2

KTBN 271356Z AUTO 23007KT 4SM RA BR FEW007 23/22 A2999 RMK AO2 SLP146 P0018

KVIH 271353Z AUTO 21007KT 5SM -RA BR FEW120 22/22 A3000 RMK AO2 SLP147 P0005

KENL 271355Z AUTO 17003KT 10SM RA BKN029 BKN037 OVC045 24/24 A2997 RMK AO2 P0001

KMTO 271353Z AUTO 29011G19KT 5SM -RA BR FEW010 BKN055 OVC070 22/22 A2996 RMK AO2

KFWC 271355Z AUTO 00000KT 7SM -RA SCT003 BKN019 OVC075 23/23 A2996 RMK AO1 P0003

KCUL 271355Z AUTO 00000KT 7SM SCT002 24/24 A2997 RMK AO2 T02370235

KEVV 271354Z 01004KT 10SM FEW020 FEW080 SCT120 24/22 A2998 RMK AO2 RAE48 SLP147

KOWB 271356Z 21006KT 7SM CLR 26/24 A2998 RMK AO2 SLP156 T02560239

KEHR 271356Z AUTO 21003KT 10SM CLR 26/24 A2997 RMK AO2 SLP154 T02560239

KCEY 271315Z AUTO 24008KT 10SM CLR 27/25 A3000 RMK AO1

KHOP 271358Z AUTO 23011KT 10SM CLR 28/23 A3000 RMK AO2 SLP154 T02840234

KMKL 271353Z 23007KT 10SM CLR 28/24 A3003 RMK AO2 SLP162 T02830239

KARG 271355Z AUTO 19007KT 10SM CLR 28/24 A3000 RMK AO1

KJBR 271353Z AUTO 23008KT 10SM CLR 28/25 A3000 RMK AO2 SLP156 T02780250

KUNO 271353Z AUTO 26004KT 5SM -RA BR SCT120 24/22 A3006 RMK AO2 SLP163 P0005

KALN 271350Z 00000KT 5SM RA SCT004 BKN011 OVC019 23/23 A2998

KALN 271350Z 00000KT 5SM RA SCT004 BKN011 OVC019 23/23 A2998

KCOU 271354Z 00000KT 4SM -RA BR BKN011 OVC055 23/23 A2998 RMK AO2 SLP142 VIS SW

KSPI 271352Z 25003KT 8SM -RA FEW008 BKN021 OVC042 24/24 A2995 RMK AO2 RAB1253

KAJG 271355Z AUTO 28005KT 10SM SCT008 SCT036 BKN100 24/23 A2998 RMK AO2

KM30 271355Z AUTO 26003KT 7SM SCT055 SCT070 27/24 A2999 RMK AO2 T02720244

KDEC 271354Z 23007KT 10SM OVC008 24/22 A2995 RMK AO2 CIG 006V010 SLP136

KIJX 271355Z AUTO 21006KT 2 1/2SM -DZ OVC004 23/22 A2994 RMK AO2 T02280222


TAFS

KEVV 271128Z 2712/2812 VRB04KT P6SM -SHRA SCT080 BKN140

        TEMPO 2715/2719 24006KT 6SM -TSRA BR SCT016 BKN045CB

        FM272000 25005KT P6SM VCSH BKN020 BKN050

        FM280300 24005KT 4SM -SHRA BKN030 OVC060

        TEMPO 2804/2806 2SM -TSRA BR BKN025CB

        FM280900 29004KT 1SM BR BKN005

KCGI 271128Z 2712/2812 24006KT P6SM SCT050 BKN180

        FM271500 23006KT P6SM -SHRA BKN030 BKN060 OVC130

        TEMPO 2716/2718 5SM -TSRA BR OVC030CB

        FM271900 25006KT P6SM VCSH SCT050 BKN140

        TEMPO 2723/2802 24005KT 5SM -TSRA BR SCT020 BKN040CB

        FM280200 26005KT 2SM SHRA BR BKN008 OVC030

        FM280700 30004KT 1SM BR BKN005

KPAH 271128Z 2712/2812 23006KT P6SM BKN200

        FM271500 22005KT P6SM VCSH BKN025 BKN060 OVC130

        TEMPO 2718/2720 5SM -TSRA BKN028CB

        FM272000 23005KT P6SM VCSH FEW016 BKN045

        TEMPO 2804/2805 12005KT 1 1/2SM TSRA BKN008 OVC040CB

        FM280500 28005KT 2SM SHRA BR BKN008

        FM280900 29004KT 1SM BR BKN005

KSPI 271241Z 2713/2812 20005KT 6SM SHRA VCTS BKN005CB OVC040

        TEMPO 2713/2715 SCT005 OVC035CB

        FM271600 VRB03KT P6SM VCTS OVC025CB

        FM272000 33005KT P6SM VCSH BKN035

        FM272300 35005KT P6SM BKN060

KSTL 271203Z 2712/2818 VRB05KT 6SM -RA SCT006 OVC020

        TEMPO 2712/2714 4SM SHRA OVC006

        FM271500 VRB05KT 6SM -RA VCTS OVC015CB

        FM271700 24006KT P6SM VCSH OVC020

        FM280000 32006KT P6SM OVC020

        FM281200 36009KT P6SM BKN035

KDEC 271135Z 2712/2812 20007KT 6SM SHRA VCTS BKN020CB

        FM271600 24005KT P6SM VCTS OVC035CB

        FM272300 34005KT P6SM VCSH BKN045

        FM280100 36005KT P6SM BKN050

KOWB 271128Z 2712/2812 VRB04KT P6SM VCSH SCT020 BKN180

        TEMPO 2716/2720 24006KT 6SM -TSRA BR BKN015 BKN045CB

        FM272100 23005KT P6SM VCSH BKN040

        FM280100 24005KT 5SM -SHRA BKN040 OVC090

        TEMPO 2805/2807 3SM -TSRA BR BKN008CB

        FM281000 29004KT 2SM BR BKN005

KSUS 271353Z 2714/2812 VRB03KT 6SM -SHRA BKN020 OVC050

        FM271700 24005KT P6SM VCSH OVC020

        FM280000 32004KT P6SM OVC020

TAF AMD KBLV 271315Z 2713/2814 30009KT 3200 -SHRA BKN003 BKN009 OVC015 QNH2997INS

        BECMG 2714/2715 30009KT 9000 -SHRA BKN010 QNH2998INS

        BECMG 2715/2716 31009KT 9000 -SHRA BKN020 OVC030 QNH2992INS

        BECMG 2719/2720 20009KT 9999 NSW OVC007 QNH2988INS

        BECMG 2806/2807 03010G15KT 9999 OVC010 QNH2989INS TX29/2718Z TN22/2805Z


Winds Aloft

VALID 271800Z FOR USE 1400-2100Z. TEMPS NEG ABV 24000

FT 3000 6000 9000 12000 18000 24000 30000 34000 39000
CGI26062522+172627+122624+072817-043013-14321528321837332751
EVV24122527+162728+122724+072820-053216-14312229302639313952
SPI99003310+173211+122913+083014-042923-15293830315140316351
STL28142913+172912+122814+083209-043015-14313029323939314651



Pilot Reports

HUF UA /OV TTH/TM 1146/FL050/TP BE20/SK VMC/WX -RA
DEC UA /OV AXC/TM 1153/FL470/TP C750/RM MOUNTAIN WAVE - ZKCFD
HUF UA /OV TTH180030/TM 1211/FL330/TP CRJ9/TB LGT-MOD CHOP/RM CONT LGT/ OCNL MOD CHOP
KALN UA /OV KALN/TM 1257/FL004/TP PRM1/SK BKN004 OVC021/WX 7SM -RA/RM B004
ENL UA /OV ENL180010/TM 1322/FL080/TP C402/WX LT RAIN/TB LGT/RM ZKC/FDC/DI
EVV UA /OV PXV/TM 1324/FL400/TP B737/TB LGT
TBN UA /OV MAP070040/TM 1330/FL090/TP SR22/WX -RA/TA 10/TB NEG/RM ZKC/FDC/DI
KDEC UA /OV GATKE/TM 1340/FL015/TP BE9L/RM BASES 008AGL, IMC DRNG DESCENT
CPS UA /OV FAP RWY 30L/TM 1349/FLDURD/TP CL30/SK OVC014 MSL



Area Forecast

000

FAUS43 KKCI 271315 AAA

FA3W

CHIC FA 271315 AMD

SYNOPSIS AND VFR CLDS/WX

SYNOPSIS VALID UNTIL 280400

CLDS/WX VALID UNTIL 272200...OTLK VALID 272200-280400

ND SD NE KS MN IA MO WI LM LS MI LH IL IN KY

.

SEE AIRMET SIERRA FOR IFR CONDS AND MTN OBSCN.

TS IMPLY SEV OR GTR TURB SEV ICE LLWS AND IFR CONDS.

NON MSL HGTS DENOTED BY AGL OR CIG.

.

SYNOPSIS...WRMFNT WRN ND. CDFNT SE MI TO LOW PRES OVR W CNTRL MO

THEN CONTG SWWD ACRS SE KS. WRMFNT SE IN-ERN TN. HI PRES RMNDR.

04Z CDFNT SRN IN-SW MO. TROF CNTRL KY. HI PRES RMNDR.

.

ND

NW...BKN100 LYRD FL220. WDLY SCT SHRA/ISOL TSRA. CB TOP FL370.

OTLK...VFR.

SW...SCT CI. 17Z SCT100 SCT CI. OTLK...VFR.

E HLF...SKC. TIL 12Z OCNL VIS 5SM BR. 15Z SCT050. OTLK...VFR.

.

SD

W 1/3...SCT120 BKN CI. 20Z BKN120 TOP FL240. WDLY SCT TSRA. CB

TOP FL370. OTLK...VFR TIL 01Z TSRA.

E 2/3...SKC. 14Z SCT CI. OTLK...VFR.

.

NE

PNHDL...BKN050 OVC100 LYRD FL240. ISOL SHRA. BECMG 1518 SCT050

BKN100. OTLK...VFR.

N CNTRL...SCT100 BKN CI. OTLK...VFR.

S CNTRL...BKN040 BKN100 LYRD FL240. VIS 3SM BR. 13Z SCT050 BKN

CI. OTLK...VFR.

NERN...SCT CI. TIL 12Z OCNL VIS 5SM BR. OTLK...VFR.

SE...BKN020-025 TOP 070. VIS 3SM BR. 14Z BKN030 TOP 060. 17Z

SCT050 SCT CI. OTLK...VFR.

.

KS

E HLF...BKN020 TOP FL240. VIS 3SM SCT SHRA/WDLY SCT TSRA. CB TOP

ABV FL450. 15Z BKN025 TOP 080. 20Z SCT040. OTLK...VFR 02Z MVFR

BR.

NW...BKN050 LYRD FL240. 15Z SCT070 BKN120. OTLK...VFR.

SW...BKN035-040 LYRD FL240. SCT SHRA/WDLY SCT TSRA. CB TOP FL450.

16Z BKN050 BKN120. 18Z SCT070 SCT120 BKN CI. OTLK...VFR 02Z VFR

TSRA.

.

MN

N 1/3...SCT015 SCT100. TIL 12Z OCNL VIS 4SM BR. 17Z SCT-BKN050

TOP 170. WDLY SCT SHRA. OTLK...VFR.

S 2/3...SKC. TIL 12Z OCNL VIS 4SM BR. 17Z SCT050. OTLK...VFR.

.

IA

N HLF...SCT015. 11Z SKC. 19Z SCT050. OTLK...VFR.

S HLF...BKN030 BKN070 TOP 100. VIS 3-5SM BR. 14Z SCT030 BKN070.

18Z SCT050. OTLK...VFR.

.

MO...UPDT

NRN...BKN015-025 TOPS 080 BKN CI. TIL 14Z OCNL VIS 3SM BR. 17Z

BKN030 TOP 100. 20Z BKN040 TOP 070. OTLK...VFR.

CNTRL-SWRN...BKN030 OVC070 TOP FL250. OCNL VIS 3-5SM -RA BR. WDLY

SCT -TSRA. CB TOP ABV FL450. BECMG 1720 BKN040 BKN100. ISOL

-SHRA. OTLK...VFR.

SERN...SCT050 BKN120 TOP FL240. ISOL SHRA. BECMG 1518 BKN040

OVC100 TOPS FL240. SCT -SHRA/WDLY SCT -TSRA. CB TOPS FL420.

OTLK...MVFR CIG SHRA TSRA.

.

WI

N 2/3...SKC. TIL 12Z OCNL VIS 5SM BR. 18Z SCT050. OTLK...VFR.

S 1/3...BKN020 TOP 070. TIL 13Z VIS 3SM BR. 15Z SCT050 SCT CI.

OTLK...VFR.

.

LS UPR MI

SKC. TIL 12Z OCNL VIS 5SM HZ. 15Z SCT100 SCT CI. OTLK...VFR.

.

LM LWR MI LH

N HLF...BKN020 BKN050 TOP 120. VIS 3SM BR. 14Z SCT050. 21Z SKC.

OTLK...VFR.

S HLF...BKN030 OVC070 TOP 170. VIS 5SM BR. 14Z BKN040 TOP 080.

AFT 18Z ISOL SHRA SRN PTNS. OTLK...VFR.

.

IL...UPDT

NRN...BKN020 TOP 050. VIS 3SM -DZ BR. 17Z BKN030-040. 20Z

BKN040-050. OTLK...VFR.

CNTRL-SRN...BKN030 OVC100 TOP FL240. TIL 16Z VIS 5SM SCT

SHRA/WDLY SCT TSRA. CB TOP FL450. 20Z BKN030. WDLY SCT TSRA.

OTLK...MVFR CIG SHRA.

.

IN...UPDT

N HLF...BKN020 TOP FL250. WDLY SCT SHRA/ISOL TSRA CB TOP FL450.

14Z BKN020 TOPS 050. 18Z BKN040. WDLY SCT SHRA. OTLK...VFR.

S HLF...BKN030 OVC060 TOP FL250. WDLY SCT SHRA/TSRA. CB TOP

FL450. 20Z WDLY SCT SHRA/ISOL TSRA. OTLK...MVFR CIG SHRA BR.

.

KY...UPDT

WRN...BKN CI. 15Z BKN050 LYRD FL250. WDLY SCT SHRA/ISOL TSRA. CB

TOP FL450. AFT 20Z WDLY SCT TSRA. OTLK...MVFR CIG TSRA BR.

N CNTRL...SCT070 BKN CI. 19Z BKN040 TOP FL250. SCT SHRA/WDLY SCT

TSRA. CB TOP ABV FL450. OTLK...VFR TSRA 02Z MVFR CIG SHRA.

S CNTRL...SCT050 BKN CI. TIL 12Z VIS 5SM BR. 20Z BKN050 LYRD

FL250. ISOL SHRA. OTLK...VFR 23Z VFR TSRA.

ERN...BKN040-050 BKN100 TOPS 150. WDLY SCT -TSRA. CB TOPS FL400.

16Z SCT060 BKN CI. 20Z BKN040 BKN100. WDLY SCT SHRA/TSRA. CB TOP

FL450. OTLK...MVFR CIG SHRA TSRA.

....



Significant Weather

WAUS43 KKCI 271246 AAA CHIS WA 271246 AMD AIRMET SIERRA UPDT 3 FOR IFR VALID UNTIL 271500 AIRMET IFR...KS MO...UPDT FROM 40NE MCI TO 50WSW COU TO 40E SGF TO 60NW END TO 50E LBL TO 40ESE TBE TO 40SE AKO TO 40E HLC TO 40N SLN TO 40NE MCI CIG BLW 010/VIS BLW 3SM PCPN/BR. CONDS CONTG BYD 15Z ENDG 15-18Z.